sensor_id;sensor_type;location;lat;lon;timestamp;temperature;humidity
12329;DHT22;6230;52.390;10.256;2023-02-01T00:01:37;8.40;71.20
12329;DHT22;6230;52.390;10.256;2023-02-01T00:04:03;8.40;71.20
12329;DHT22;6230;52.390;10.256;2023-02-01T00:06:28;8.40;71.10
12329;DHT22;6230;52.390;10.256;2023-02-01T00:08:54;8.40;71.10
12329;DHT22;6230;52.390;10.256;2023-02-01T00:11:21;8.40;71.00
12329;DHT22;6230;52.390;10.256;2023-02-01T00:13:47;8.40;71.00
12329;DHT22;6230;52.390;10.256;2023-02-01T00:16:16;8.40;71.00
12329;DHT22;6230;52.390;10.256;2023-02-01T00:18:46;8.40;71.00
12329;DHT22;6230;52.390;10.256;2023-02-01T00:21:13;8.40;71.00
12329;DHT22;6230;52.390;10.256;2023-02-01T00:23:39;8.40;71.00
12329;DHT22;6230;52.390;10.256;2023-02-01T00:26:13;8.40;70.90
12329;DHT22;6230;52.390;10.256;2023-02-01T00:28:39;8.40;70.90
12329;DHT22;6230;52.390;10.256;2023-02-01T00:31:04;8.40;70.80
12329;DHT22;6230;52.390;10.256;2023-02-01T00:33:31;8.40;70.90
12329;DHT22;6230;52.390;10.256;2023-02-01T00:36:01;8.40;70.90
12329;DHT22;6230;52.390;10.256;2023-02-01T00:38:27;8.40;70.80
12329;DHT22;6230;52.390;10.256;2023-02-01T00:40:53;8.40;70.80
12329;DHT22;6230;52.390;10.256;2023-02-01T00:43:20;8.40;71.60
12329;DHT22;6230;52.390;10.256;2023-02-01T00:45:46;8.40;70.70
12329;DHT22;6230;52.390;10.256;2023-02-01T00:48:12;8.40;70.60
12329;DHT22;6230;52.390;10.256;2023-02-01T00:50:43;8.40;70.60
12329;DHT22;6230;52.390;10.256;2023-02-01T00:53:10;8.40;70.60
12329;DHT22;6230;52.390;10.256;2023-02-01T00:55:36;8.40;70.60
12329;DHT22;6230;52.390;10.256;2023-02-01T00:58:01;8.40;70.50
12329;DHT22;6230;52.390;10.256;2023-02-01T01:00:27;8.40;70.60
12329;DHT22;6230;52.390;10.256;2023-02-01T01:02:53;8.40;70.50
12329;DHT22;6230;52.390;10.256;2023-02-01T01:05:18;8.40;70.50
12329;DHT22;6230;52.390;10.256;2023-02-01T01:07:44;8.40;70.50
12329;DHT22;6230;52.390;10.256;2023-02-01T01:10:10;8.40;70.50
12329;DHT22;6230;52.390;10.256;2023-02-01T01:12:36;8.40;70.50
12329;DHT22;6230;52.390;10.256;2023-02-01T01:15:01;8.40;70.50
12329;DHT22;6230;52.390;10.256;2023-02-01T01:17:27;8.40;70.40
12329;DHT22;6230;52.390;10.256;2023-02-01T01:19:52;8.40;70.30
12329;DHT22;6230;52.390;10.256;2023-02-01T01:22:18;8.40;70.30
12329;DHT22;6230;52.390;10.256;2023-02-01T01:24:43;8.40;70.30
12329;DHT22;6230;52.390;10.256;2023-02-01T01:27:09;8.40;70.30
12329;DHT22;6230;52.390;10.256;2023-02-01T01:29:35;8.40;70.40
12329;DHT22;6230;52.390;10.256;2023-02-01T01:32:00;8.40;70.40
12329;DHT22;6230;52.390;10.256;2023-02-01T01:34:26;8.40;70.40
12329;DHT22;6230;52.390;10.256;2023-02-01T01:36:51;8.40;70.40
12329;DHT22;6230;52.390;10.256;2023-02-01T01:39:17;8.40;70.40
12329;DHT22;6230;52.390;10.256;2023-02-01T01:41:42;8.40;70.30
12329;DHT22;6230;52.390;10.256;2023-02-01T01:47:12;8.30;70.30
12329;DHT22;6230;52.390;10.256;2023-02-01T01:49:39;8.40;70.30
12329;DHT22;6230;52.390;10.256;2023-02-01T01:52:05;8.40;70.40
12329;DHT22;6230;52.390;10.256;2023-02-01T01:54:33;8.40;70.40
12329;DHT22;6230;52.390;10.256;2023-02-01T01:57:04;8.40;70.40
12329;DHT22;6230;52.390;10.256;2023-02-01T01:59:31;8.40;70.40
12329;DHT22;6230;52.390;10.256;2023-02-01T02:01:57;8.40;70.40
12329;DHT22;6230;52.390;10.256;2023-02-01T02:04:24;8.30;70.40
12329;DHT22;6230;52.390;10.256;2023-02-01T02:06:59;8.30;70.40
12329;DHT22;6230;52.390;10.256;2023-02-01T02:09:25;8.40;70.50
12329;DHT22;6230;52.390;10.256;2023-02-01T02:11:50;8.30;70.30
12329;DHT22;6230;52.390;10.256;2023-02-01T02:14:17;8.40;70.40
12329;DHT22;6230;52.390;10.256;2023-02-01T02:24:58;8.40;70.30
12329;DHT22;6230;52.390;10.256;2023-02-01T02:28:08;8.40;70.40
12329;DHT22;6230;52.390;10.256;2023-02-01T02:33:42;8.40;70.20
12329;DHT22;6230;52.390;10.256;2023-02-01T02:39:01;8.40;70.30
12329;DHT22;6230;52.390;10.256;2023-02-01T02:41:43;8.40;71.10
12329;DHT22;6230;52.390;10.256;2023-02-01T02:44:45;8.40;70.30
12329;DHT22;6230;52.390;10.256;2023-02-01T02:47:41;8.40;70.30
12329;DHT22;6230;52.390;10.256;2023-02-01T02:50:17;8.40;70.30
12329;DHT22;6230;52.390;10.256;2023-02-01T02:53:10;8.40;70.40
12329;DHT22;6230;52.390;10.256;2023-02-01T02:55:56;8.40;70.30
12329;DHT22;6230;52.390;10.256;2023-02-01T02:58:42;8.40;70.30
12329;DHT22;6230;52.390;10.256;2023-02-01T03:01:27;8.40;70.20
12329;DHT22;6230;52.390;10.256;2023-02-01T03:04:12;8.40;70.20
12329;DHT22;6230;52.390;10.256;2023-02-01T03:06:43;8.40;70.30
12329;DHT22;6230;52.390;10.256;2023-02-01T03:09:14;8.40;70.30
12329;DHT22;6230;52.390;10.256;2023-02-01T03:11:43;8.40;70.30
12329;DHT22;6230;52.390;10.256;2023-02-01T03:14:30;8.40;70.30
12329;DHT22;6230;52.390;10.256;2023-02-01T03:17:11;8.40;70.30
12329;DHT22;6230;52.390;10.256;2023-02-01T03:19:43;8.40;70.30
12329;DHT22;6230;52.390;10.256;2023-02-01T03:22:17;8.40;70.20
12329;DHT22;6230;52.390;10.256;2023-02-01T03:24:48;8.40;70.30
12329;DHT22;6230;52.390;10.256;2023-02-01T03:27:44;8.40;70.20
12329;DHT22;6230;52.390;10.256;2023-02-01T03:30:24;8.40;70.20
12329;DHT22;6230;52.390;10.256;2023-02-01T03:32:53;8.40;70.20
12329;DHT22;6230;52.390;10.256;2023-02-01T03:36:01;8.40;70.20
12329;DHT22;6230;52.390;10.256;2023-02-01T03:41:22;8.40;70.20
12329;DHT22;6230;52.390;10.256;2023-02-01T03:46:49;8.40;70.20
12329;DHT22;6230;52.390;10.256;2023-02-01T03:49:22;8.40;70.30
12329;DHT22;6230;52.390;10.256;2023-02-01T03:51:50;8.30;70.30
12329;DHT22;6230;52.390;10.256;2023-02-01T03:54:17;8.30;70.30
12329;DHT22;6230;52.390;10.256;2023-02-01T03:56:44;8.40;70.30
12329;DHT22;6230;52.390;10.256;2023-02-01T03:59:12;8.30;70.30
12329;DHT22;6230;52.390;10.256;2023-02-01T04:01:38;8.30;70.30
12329;DHT22;6230;52.390;10.256;2023-02-01T04:04:05;8.30;70.30
12329;DHT22;6230;52.390;10.256;2023-02-01T04:06:30;8.40;70.40
12329;DHT22;6230;52.390;10.256;2023-02-01T04:08:56;8.30;70.40
12329;DHT22;6230;52.390;10.256;2023-02-01T04:11:21;8.30;70.50
12329;DHT22;6230;52.390;10.256;2023-02-01T04:13:47;8.30;70.50
12329;DHT22;6230;52.390;10.256;2023-02-01T04:16:12;8.30;70.60
12329;DHT22;6230;52.390;10.256;2023-02-01T04:18:38;8.30;70.60
12329;DHT22;6230;52.390;10.256;2023-02-01T04:21:04;8.30;70.60
12329;DHT22;6230;52.390;10.256;2023-02-01T04:23:29;8.30;70.60
12329;DHT22;6230;52.390;10.256;2023-02-01T04:26:04;8.40;70.70
12329;DHT22;6230;52.390;10.256;2023-02-01T04:28:30;8.40;70.70
12329;DHT22;6230;52.390;10.256;2023-02-01T04:30:56;8.40;70.70
12329;DHT22;6230;52.390;10.256;2023-02-01T04:33:22;8.40;70.70
12329;DHT22;6230;52.390;10.256;2023-02-01T04:35:47;8.40;70.70
12329;DHT22;6230;52.390;10.256;2023-02-01T04:38:13;8.40;70.70
12329;DHT22;6230;52.390;10.256;2023-02-01T04:40:39;8.40;70.70
12329;DHT22;6230;52.390;10.256;2023-02-01T04:43:04;8.40;70.70
12329;DHT22;6230;52.390;10.256;2023-02-01T04:45:30;8.40;70.70
12329;DHT22;6230;52.390;10.256;2023-02-01T04:47:56;8.40;70.70
12329;DHT22;6230;52.390;10.256;2023-02-01T04:50:21;8.40;70.70
12329;DHT22;6230;52.390;10.256;2023-02-01T04:52:47;8.40;70.70
12329;DHT22;6230;52.390;10.256;2023-02-01T04:55:12;8.50;70.70
12329;DHT22;6230;52.390;10.256;2023-02-01T04:57:39;8.40;70.70
12329;DHT22;6230;52.390;10.256;2023-02-01T05:00:06;8.40;71.60
12329;DHT22;6230;52.390;10.256;2023-02-01T05:02:32;8.40;70.80
12329;DHT22;6230;52.390;10.256;2023-02-01T05:04:58;8.40;70.80
12329;DHT22;6230;52.390;10.256;2023-02-01T05:07:23;8.40;70.90
12329;DHT22;6230;52.390;10.256;2023-02-01T05:09:49;8.40;71.00
12329;DHT22;6230;52.390;10.256;2023-02-01T05:12:14;8.40;71.00
12329;DHT22;6230;52.390;10.256;2023-02-01T05:14:59;8.40;71.10
12329;DHT22;6230;52.390;10.256;2023-02-01T05:17:24;8.40;71.20
12329;DHT22;6230;52.390;10.256;2023-02-01T05:19:50;8.40;72.00
12329;DHT22;6230;52.390;10.256;2023-02-01T05:22:15;8.40;71.30
12329;DHT22;6230;52.390;10.256;2023-02-01T05:24:41;8.40;71.50
12329;DHT22;6230;52.390;10.256;2023-02-01T05:27:06;8.30;71.50
12329;DHT22;6230;52.390;10.256;2023-02-01T05:29:32;8.30;71.70
12329;DHT22;6230;52.390;10.256;2023-02-01T05:31:57;8.30;71.70
12329;DHT22;6230;52.390;10.256;2023-02-01T05:34:23;8.30;71.90
12329;DHT22;6230;52.390;10.256;2023-02-01T05:36:48;8.30;72.00
12329;DHT22;6230;52.390;10.256;2023-02-01T05:39:14;8.20;72.10
12329;DHT22;6230;52.390;10.256;2023-02-01T05:41:39;8.20;72.30
12329;DHT22;6230;52.390;10.256;2023-02-01T05:44:05;8.20;72.40
12329;DHT22;6230;52.390;10.256;2023-02-01T05:46:33;8.10;72.70
12329;DHT22;6230;52.390;10.256;2023-02-01T05:48:58;8.10;72.90
12329;DHT22;6230;52.390;10.256;2023-02-01T05:51:24;8.00;73.00
12329;DHT22;6230;52.390;10.256;2023-02-01T05:53:49;8.00;73.20
12329;DHT22;6230;52.390;10.256;2023-02-01T05:56:15;8.00;73.30
12329;DHT22;6230;52.390;10.256;2023-02-01T05:58:40;7.90;73.40
12329;DHT22;6230;52.390;10.256;2023-02-01T06:01:06;7.90;73.60
12329;DHT22;6230;52.390;10.256;2023-02-01T06:03:31;7.90;73.80
12329;DHT22;6230;52.390;10.256;2023-02-01T06:05:57;7.90;73.80
12329;DHT22;6230;52.390;10.256;2023-02-01T06:08:23;7.80;73.80
12329;DHT22;6230;52.390;10.256;2023-02-01T06:10:51;7.80;73.80
12329;DHT22;6230;52.390;10.256;2023-02-01T06:13:22;7.90;73.90
12329;DHT22;6230;52.390;10.256;2023-02-01T06:15:47;7.90;74.00
12329;DHT22;6230;52.390;10.256;2023-02-01T06:18:13;7.90;74.10
12329;DHT22;6230;52.390;10.256;2023-02-01T06:20:41;7.90;74.10
12329;DHT22;6230;52.390;10.256;2023-02-01T06:23:06;7.90;74.10
12329;DHT22;6230;52.390;10.256;2023-02-01T06:25:32;7.90;74.20
12329;DHT22;6230;52.390;10.256;2023-02-01T06:28:00;7.90;74.20
12329;DHT22;6230;52.390;10.256;2023-02-01T06:30:26;7.90;74.20
12329;DHT22;6230;52.390;10.256;2023-02-01T06:32:52;7.90;74.20
12329;DHT22;6230;52.390;10.256;2023-02-01T06:35:20;7.90;74.20
12329;DHT22;6230;52.390;10.256;2023-02-01T06:37:46;8.00;75.00
12329;DHT22;6230;52.390;10.256;2023-02-01T06:40:11;8.00;74.30
12329;DHT22;6230;52.390;10.256;2023-02-01T06:42:37;8.00;74.20
12329;DHT22;6230;52.390;10.256;2023-02-01T06:45:03;8.00;74.30
12329;DHT22;6230;52.390;10.256;2023-02-01T06:47:29;8.00;74.40
12329;DHT22;6230;52.390;10.256;2023-02-01T06:49:54;8.00;74.50
12329;DHT22;6230;52.390;10.256;2023-02-01T06:52:20;8.00;74.60
12329;DHT22;6230;52.390;10.256;2023-02-01T06:54:45;7.90;74.60
12329;DHT22;6230;52.390;10.256;2023-02-01T06:57:11;7.90;74.70
12329;DHT22;6230;52.390;10.256;2023-02-01T06:59:37;7.90;74.80
12329;DHT22;6230;52.390;10.256;2023-02-01T07:02:02;7.90;74.90
12329;DHT22;6230;52.390;10.256;2023-02-01T07:04:28;7.90;75.20
12329;DHT22;6230;52.390;10.256;2023-02-01T07:06:53;7.90;75.20
12329;DHT22;6230;52.390;10.256;2023-02-01T07:09:19;7.90;75.20
12329;DHT22;6230;52.390;10.256;2023-02-01T07:11:44;8.00;75.30
12329;DHT22;6230;52.390;10.256;2023-02-01T07:14:10;7.90;75.30
12329;DHT22;6230;52.390;10.256;2023-02-01T07:16:36;7.90;75.30
12329;DHT22;6230;52.390;10.256;2023-02-01T07:19:02;7.90;75.40
12329;DHT22;6230;52.390;10.256;2023-02-01T07:21:28;7.90;75.40
12329;DHT22;6230;52.390;10.256;2023-02-01T07:23:54;7.90;75.50
12329;DHT22;6230;52.390;10.256;2023-02-01T07:26:21;7.90;75.50
12329;DHT22;6230;52.390;10.256;2023-02-01T07:28:47;7.90;75.50
12329;DHT22;6230;52.390;10.256;2023-02-01T07:31:15;7.90;75.60
12329;DHT22;6230;52.390;10.256;2023-02-01T07:33:41;7.90;75.50
12329;DHT22;6230;52.390;10.256;2023-02-01T07:36:11;8.00;75.50
12329;DHT22;6230;52.390;10.256;2023-02-01T07:38:37;8.00;75.50
12329;DHT22;6230;52.390;10.256;2023-02-01T07:41:04;8.00;75.50
12329;DHT22;6230;52.390;10.256;2023-02-01T07:43:30;8.00;75.50
12329;DHT22;6230;52.390;10.256;2023-02-01T07:45:57;8.00;75.60
12329;DHT22;6230;52.390;10.256;2023-02-01T07:48:23;8.10;75.60
12329;DHT22;6230;52.390;10.256;2023-02-01T07:50:56;8.10;75.60
12329;DHT22;6230;52.390;10.256;2023-02-01T07:53:21;8.10;75.60
12329;DHT22;6230;52.390;10.256;2023-02-01T07:55:47;8.10;75.60
12329;DHT22;6230;52.390;10.256;2023-02-01T07:58:13;8.10;75.60
12329;DHT22;6230;52.390;10.256;2023-02-01T08:00:38;8.10;75.70
12329;DHT22;6230;52.390;10.256;2023-02-01T08:03:24;8.10;75.70
12329;DHT22;6230;52.390;10.256;2023-02-01T08:05:56;8.10;75.70
12329;DHT22;6230;52.390;10.256;2023-02-01T08:08:22;8.10;75.80
12329;DHT22;6230;52.390;10.256;2023-02-01T08:10:48;8.10;75.80
12329;DHT22;6230;52.390;10.256;2023-02-01T08:13:14;8.10;75.70
12329;DHT22;6230;52.390;10.256;2023-02-01T08:15:39;8.10;75.80
12329;DHT22;6230;52.390;10.256;2023-02-01T08:18:05;8.10;75.80
12329;DHT22;6230;52.390;10.256;2023-02-01T08:20:31;8.10;76.60
12329;DHT22;6230;52.390;10.256;2023-02-01T08:22:56;8.10;75.80
12329;DHT22;6230;52.390;10.256;2023-02-01T08:25:23;8.10;75.70
12329;DHT22;6230;52.390;10.256;2023-02-01T08:27:49;8.20;75.60
12329;DHT22;6230;52.390;10.256;2023-02-01T08:30:15;8.20;75.70
12329;DHT22;6230;52.390;10.256;2023-02-01T08:32:41;8.20;75.50
12329;DHT22;6230;52.390;10.256;2023-02-01T08:35:07;8.10;75.30
12329;DHT22;6230;52.390;10.256;2023-02-01T08:37:33;8.00;75.00
12329;DHT22;6230;52.390;10.256;2023-02-01T08:39:59;7.80;75.10
12329;DHT22;6230;52.390;10.256;2023-02-01T08:42:24;7.70;75.10
12329;DHT22;6230;52.390;10.256;2023-02-01T08:45:09;7.60;75.10
12329;DHT22;6230;52.390;10.256;2023-02-01T08:47:35;7.60;75.10
12329;DHT22;6230;52.390;10.256;2023-02-01T08:50:01;7.60;75.30
12329;DHT22;6230;52.390;10.256;2023-02-01T08:52:26;7.60;75.30
12329;DHT22;6230;52.390;10.256;2023-02-01T08:54:52;7.60;75.30
12329;DHT22;6230;52.390;10.256;2023-02-01T08:57:17;7.60;75.30
12329;DHT22;6230;52.390;10.256;2023-02-01T08:59:43;7.60;75.30
12329;DHT22;6230;52.390;10.256;2023-02-01T09:02:16;7.60;75.30
12329;DHT22;6230;52.390;10.256;2023-02-01T09:04:42;7.60;75.50
12329;DHT22;6230;52.390;10.256;2023-02-01T09:07:11;7.70;75.60
12329;DHT22;6230;52.390;10.256;2023-02-01T09:09:38;7.70;75.70
12329;DHT22;6230;52.390;10.256;2023-02-01T09:12:04;7.70;75.70
12329;DHT22;6230;52.390;10.256;2023-02-01T09:14:30;7.70;75.90
12329;DHT22;6230;52.390;10.256;2023-02-01T09:16:55;7.80;76.00
12329;DHT22;6230;52.390;10.256;2023-02-01T09:19:21;7.80;76.00
12329;DHT22;6230;52.390;10.256;2023-02-01T09:21:46;7.80;76.00
12329;DHT22;6230;52.390;10.256;2023-02-01T09:24:12;7.90;76.10
12329;DHT22;6230;52.390;10.256;2023-02-01T09:26:38;7.90;76.10
12329;DHT22;6230;52.390;10.256;2023-02-01T09:29:06;7.90;76.30
12329;DHT22;6230;52.390;10.256;2023-02-01T09:31:38;8.00;76.30
12329;DHT22;6230;52.390;10.256;2023-02-01T09:34:04;8.10;76.50
12329;DHT22;6230;52.390;10.256;2023-02-01T09:36:30;8.20;76.50
12329;DHT22;6230;52.390;10.256;2023-02-01T09:38:56;8.30;76.60
12329;DHT22;6230;52.390;10.256;2023-02-01T09:46:44;8.50;77.00
12329;DHT22;6230;52.390;10.256;2023-02-01T09:49:21;8.50;76.20
12329;DHT22;6230;52.390;10.256;2023-02-01T09:51:50;8.60;76.00
12329;DHT22;6230;52.390;10.256;2023-02-01T09:54:25;8.70;76.00
12329;DHT22;6230;52.390;10.256;2023-02-01T09:56:56;8.70;75.90
12329;DHT22;6230;52.390;10.256;2023-02-01T09:59:33;8.80;75.90
12329;DHT22;6230;52.390;10.256;2023-02-01T10:02:02;8.80;75.70
12329;DHT22;6230;52.390;10.256;2023-02-01T10:04:28;8.80;75.50
12329;DHT22;6230;52.390;10.256;2023-02-01T10:07:09;8.90;75.40
12329;DHT22;6230;52.390;10.256;2023-02-01T10:10:07;8.90;75.30
12329;DHT22;6230;52.390;10.256;2023-02-01T10:13:14;8.90;75.00
12329;DHT22;6230;52.390;10.256;2023-02-01T10:19:02;9.00;74.80
12329;DHT22;6230;52.390;10.256;2023-02-01T10:21:51;9.00;74.60
12329;DHT22;6230;52.390;10.256;2023-02-01T10:24:28;9.10;74.60
12329;DHT22;6230;52.390;10.256;2023-02-01T10:27:14;9.10;74.30
12329;DHT22;6230;52.390;10.256;2023-02-01T10:29:45;9.10;74.40
12329;DHT22;6230;52.390;10.256;2023-02-01T10:32:15;9.20;74.60
12329;DHT22;6230;52.390;10.256;2023-02-01T10:34:42;9.30;74.50
12329;DHT22;6230;52.390;10.256;2023-02-01T10:39:46;9.40;73.70
12329;DHT22;6230;52.390;10.256;2023-02-01T10:42:13;9.50;73.70
12329;DHT22;6230;52.390;10.256;2023-02-01T10:44:43;9.50;73.60
12329;DHT22;6230;52.390;10.256;2023-02-01T10:47:11;9.50;73.40
12329;DHT22;6230;52.390;10.256;2023-02-01T10:52:20;9.60;73.20
12329;DHT22;6230;52.390;10.256;2023-02-01T10:54:46;9.60;73.10
12329;DHT22;6230;52.390;10.256;2023-02-01T10:57:24;9.60;72.90
12329;DHT22;6230;52.390;10.256;2023-02-01T10:59:51;9.60;72.50
12329;DHT22;6230;52.390;10.256;2023-02-01T11:04:46;9.60;72.40
12329;DHT22;6230;52.390;10.256;2023-02-01T11:07:24;9.60;72.40
12329;DHT22;6230;52.390;10.256;2023-02-01T11:09:52;9.50;72.30
12329;DHT22;6230;52.390;10.256;2023-02-01T11:12:47;9.50;72.20
12329;DHT22;6230;52.390;10.256;2023-02-01T11:17:43;9.50;72.10
12329;DHT22;6230;52.390;10.256;2023-02-01T11:20:17;9.50;72.00
12329;DHT22;6230;52.390;10.256;2023-02-01T11:22:54;9.50;72.00
12329;DHT22;6230;52.390;10.256;2023-02-01T11:25:21;9.40;71.90
12329;DHT22;6230;52.390;10.256;2023-02-01T11:27:49;9.50;72.00
12329;DHT22;6230;52.390;10.256;2023-02-01T11:30:17;9.50;71.80
12329;DHT22;6230;52.390;10.256;2023-02-01T11:32:46;9.50;71.60
12329;DHT22;6230;52.390;10.256;2023-02-01T11:35:18;9.50;71.40
12329;DHT22;6230;52.390;10.256;2023-02-01T11:37:50;9.40;71.50
12329;DHT22;6230;52.390;10.256;2023-02-01T11:45:32;9.40;71.30
12329;DHT22;6230;52.390;10.256;2023-02-01T11:48:14;9.50;71.40
12329;DHT22;6230;52.390;10.256;2023-02-01T11:53:32;9.60;71.40
12329;DHT22;6230;52.390;10.256;2023-02-01T11:59:24;9.90;71.20
12329;DHT22;6230;52.390;10.256;2023-02-01T12:02:20;9.90;70.70
12329;DHT22;6230;52.390;10.256;2023-02-01T12:05:07;9.90;70.50
12329;DHT22;6230;52.390;10.256;2023-02-01T12:08:01;9.90;70.40
12329;DHT22;6230;52.390;10.256;2023-02-01T12:16:28;9.90;70.00
12329;DHT22;6230;52.390;10.256;2023-02-01T12:19:21;9.90;70.00
12329;DHT22;6230;52.390;10.256;2023-02-01T12:30:02;9.90;69.50
12329;DHT22;6230;52.390;10.256;2023-02-01T12:32:54;9.80;69.50
12329;DHT22;6230;52.390;10.256;2023-02-01T12:38:24;9.80;69.40
12329;DHT22;6230;52.390;10.256;2023-02-01T12:44:02;9.70;69.50
12329;DHT22;6230;52.390;10.256;2023-02-01T12:46:37;9.70;69.70
12329;DHT22;6230;52.390;10.256;2023-02-01T12:49:19;9.70;69.70
12329;DHT22;6230;52.390;10.256;2023-02-01T12:51:52;9.60;69.90
12329;DHT22;6230;52.390;10.256;2023-02-01T12:54:23;9.60;70.10
12329;DHT22;6230;52.390;10.256;2023-02-01T12:57:05;9.50;70.30
12329;DHT22;6230;52.390;10.256;2023-02-01T12:59:42;9.50;70.70
12329;DHT22;6230;52.390;10.256;2023-02-01T13:05:17;9.30;71.10
12329;DHT22;6230;52.390;10.256;2023-02-01T13:07:53;9.20;71.30
12329;DHT22;6230;52.390;10.256;2023-02-01T13:10:24;9.20;71.60
12329;DHT22;6230;52.390;10.256;2023-02-01T13:13:19;9.10;71.80
12329;DHT22;6230;52.390;10.256;2023-02-01T13:18:47;9.00;72.40
12329;DHT22;6230;52.390;10.256;2023-02-01T13:21:22;8.90;72.30
12329;DHT22;6230;52.390;10.256;2023-02-01T13:23:50;8.90;72.50
12329;DHT22;6230;52.390;10.256;2023-02-01T13:26:16;8.90;72.70
12329;DHT22;6230;52.390;10.256;2023-02-01T13:28:52;8.90;72.90
12329;DHT22;6230;52.390;10.256;2023-02-01T13:43:01;8.70;74.00
12329;DHT22;6230;52.390;10.256;2023-02-01T13:45:34;8.60;74.00
12329;DHT22;6230;52.390;10.256;2023-02-01T13:48:04;8.60;74.30
12329;DHT22;6230;52.390;10.256;2023-02-01T13:50:38;8.50;74.20
12329;DHT22;6230;52.390;10.256;2023-02-01T13:55:39;8.20;74.10
12329;DHT22;6230;52.390;10.256;2023-02-01T14:00:43;8.00;74.40
12329;DHT22;6230;52.390;10.256;2023-02-01T14:03:56;7.90;74.40
12329;DHT22;6230;52.390;10.256;2023-02-01T14:06:05;7.90;74.50
12329;DHT22;6230;52.390;10.256;2023-02-01T14:08:41;7.90;74.40
12329;DHT22;6230;52.390;10.256;2023-02-01T14:12:04;8.00;74.30
12329;DHT22;6230;52.390;10.256;2023-02-01T14:19:28;7.90;74.20
12329;DHT22;6230;52.390;10.256;2023-02-01T14:21:56;7.90;74.20
12329;DHT22;6230;52.390;10.256;2023-02-01T14:24:29;7.90;74.20
12329;DHT22;6230;52.390;10.256;2023-02-01T14:26:57;7.90;74.20
12329;DHT22;6230;52.390;10.256;2023-02-01T14:29:36;7.90;74.00
12329;DHT22;6230;52.390;10.256;2023-02-01T14:32:15;7.80;74.00
12329;DHT22;6230;52.390;10.256;2023-02-01T14:44:56;7.70;74.00
12329;DHT22;6230;52.390;10.256;2023-02-01T14:47:38;7.70;74.10
12329;DHT22;6230;52.390;10.256;2023-02-01T14:53:32;7.60;74.10
12329;DHT22;6230;52.390;10.256;2023-02-01T14:56:11;7.60;74.20
12329;DHT22;6230;52.390;10.256;2023-02-01T14:59:01;7.60;74.20
12329;DHT22;6230;52.390;10.256;2023-02-01T15:01:34;7.50;74.20
12329;DHT22;6230;52.390;10.256;2023-02-01T15:04:09;7.50;74.30
12329;DHT22;6230;52.390;10.256;2023-02-01T15:06:49;7.40;74.30
12329;DHT22;6230;52.390;10.256;2023-02-01T15:09:25;7.40;74.40
12329;DHT22;6230;52.390;10.256;2023-02-01T15:14:20;7.40;74.40
12329;DHT22;6230;52.390;10.256;2023-02-01T15:16:46;7.30;74.20
12329;DHT22;6230;52.390;10.256;2023-02-01T15:19:22;7.30;74.30
12329;DHT22;6230;52.390;10.256;2023-02-01T15:21:51;7.30;74.50
12329;DHT22;6230;52.390;10.256;2023-02-01T15:24:27;7.20;74.40
12329;DHT22;6230;52.390;10.256;2023-02-01T15:26:54;7.20;74.50
12329;DHT22;6230;52.390;10.256;2023-02-01T15:29:22;7.20;74.50
12329;DHT22;6230;52.390;10.256;2023-02-01T15:31:53;7.20;74.40
12329;DHT22;6230;52.390;10.256;2023-02-01T15:34:20;7.20;74.40
12329;DHT22;6230;52.390;10.256;2023-02-01T15:36:46;7.20;74.30
12329;DHT22;6230;52.390;10.256;2023-02-01T15:39:23;7.20;74.30
12329;DHT22;6230;52.390;10.256;2023-02-01T15:42:11;7.20;74.50
12329;DHT22;6230;52.390;10.256;2023-02-01T15:44:44;7.20;74.50
12329;DHT22;6230;52.390;10.256;2023-02-01T15:47:18;7.20;74.40
12329;DHT22;6230;52.390;10.256;2023-02-01T15:49:47;7.10;74.40
12329;DHT22;6230;52.390;10.256;2023-02-01T15:52:25;7.10;74.40
12329;DHT22;6230;52.390;10.256;2023-02-01T15:54:56;7.10;74.40
12329;DHT22;6230;52.390;10.256;2023-02-01T15:57:28;7.10;74.40
12329;DHT22;6230;52.390;10.256;2023-02-01T15:59:58;7.10;74.40
12329;DHT22;6230;52.390;10.256;2023-02-01T16:02:34;7.10;74.40
12329;DHT22;6230;52.390;10.256;2023-02-01T16:04:57;7.10;74.50
12329;DHT22;6230;52.390;10.256;2023-02-01T16:07:33;7.10;74.50
12329;DHT22;6230;52.390;10.256;2023-02-01T16:10:01;7.10;74.50
12329;DHT22;6230;52.390;10.256;2023-02-01T16:15:04;7.10;74.60
12329;DHT22;6230;52.390;10.256;2023-02-01T16:17:31;7.10;74.60
12329;DHT22;6230;52.390;10.256;2023-02-01T16:19:57;7.10;74.60
12329;DHT22;6230;52.390;10.256;2023-02-01T16:22:24;7.10;74.50
12329;DHT22;6230;52.390;10.256;2023-02-01T16:24:50;7.10;74.50
12329;DHT22;6230;52.390;10.256;2023-02-01T16:27:16;7.10;74.50
12329;DHT22;6230;52.390;10.256;2023-02-01T16:29:41;7.20;74.60
12329;DHT22;6230;52.390;10.256;2023-02-01T16:32:18;7.10;74.40
12329;DHT22;6230;52.390;10.256;2023-02-01T16:34:45;7.10;74.60
12329;DHT22;6230;52.390;10.256;2023-02-01T16:37:19;7.20;74.70
12329;DHT22;6230;52.390;10.256;2023-02-01T16:39:45;7.20;74.80
12329;DHT22;6230;52.390;10.256;2023-02-01T16:42:12;7.10;74.70
12329;DHT22;6230;52.390;10.256;2023-02-01T16:44:42;7.10;74.90
12329;DHT22;6230;52.390;10.256;2023-02-01T16:47:14;7.10;74.90
12329;DHT22;6230;52.390;10.256;2023-02-01T16:49:42;7.10;75.30
12329;DHT22;6230;52.390;10.256;2023-02-01T16:52:16;7.10;75.40
12329;DHT22;6230;52.390;10.256;2023-02-01T16:54:42;7.10;75.50
12329;DHT22;6230;52.390;10.256;2023-02-01T16:57:12;7.10;75.50
12329;DHT22;6230;52.390;10.256;2023-02-01T16:59:39;7.10;75.60
12329;DHT22;6230;52.390;10.256;2023-02-01T17:02:04;7.20;75.40
12329;DHT22;6230;52.390;10.256;2023-02-01T17:04:30;7.20;75.40
12329;DHT22;6230;52.390;10.256;2023-02-01T17:06:55;7.20;75.30
12329;DHT22;6230;52.390;10.256;2023-02-01T17:09:21;7.30;75.30
12329;DHT22;6230;52.390;10.256;2023-02-01T17:11:47;7.30;75.30
12329;DHT22;6230;52.390;10.256;2023-02-01T17:14:19;7.30;75.20
12329;DHT22;6230;52.390;10.256;2023-02-01T17:16:47;7.40;75.30
12329;DHT22;6230;52.390;10.256;2023-02-01T17:19:15;7.40;75.20
12329;DHT22;6230;52.390;10.256;2023-02-01T17:21:48;7.40;75.10
12329;DHT22;6230;52.390;10.256;2023-02-01T17:24:21;7.50;75.20
12329;DHT22;6230;52.390;10.256;2023-02-01T17:26:47;7.50;75.10
12329;DHT22;6230;52.390;10.256;2023-02-01T17:29:14;7.50;75.10
12329;DHT22;6230;52.390;10.256;2023-02-01T17:31:45;7.60;75.10
12329;DHT22;6230;52.390;10.256;2023-02-01T17:34:13;7.60;75.30
12329;DHT22;6230;52.390;10.256;2023-02-01T17:36:44;7.60;75.20
12329;DHT22;6230;52.390;10.256;2023-02-01T17:39:10;7.60;75.30
12329;DHT22;6230;52.390;10.256;2023-02-01T17:41:36;7.60;75.30
12329;DHT22;6230;52.390;10.256;2023-02-01T17:44:03;7.60;75.30
12329;DHT22;6230;52.390;10.256;2023-02-01T17:46:30;7.60;75.20
12329;DHT22;6230;52.390;10.256;2023-02-01T17:48:56;7.70;75.40
12329;DHT22;6230;52.390;10.256;2023-02-01T17:51:24;7.60;75.30
12329;DHT22;6230;52.390;10.256;2023-02-01T17:53:51;7.70;75.40
12329;DHT22;6230;52.390;10.256;2023-02-01T17:56:20;7.60;75.40
12329;DHT22;6230;52.390;10.256;2023-02-01T17:58:46;7.70;75.50
12329;DHT22;6230;52.390;10.256;2023-02-01T18:01:18;7.60;75.40
12329;DHT22;6230;52.390;10.256;2023-02-01T18:04:26;7.50;75.50